Time;durP1;ratioP1;P1;durP2;ratioP2;P2;SDS_P1;SDS_P2;PMS_P1;PMS_P2;Temp;Humidity;BMP_temperature;BMP_pressure;BME280_temperature;BME280_humidity;BME280_pressure;Samples;Min_cycle;Max_cycle;Signal;HPM_P1;HPM_P2
2023/10/30 00:00:20;;;;;;;;;2.00;0.75;;;;;14.84;73.37;99618.16;5060262;28;45439;-69
2023/10/30 00:02:45;;;;;;;;;2.00;1.00;;;;;14.83;73.21;99617.34;5059952;28;46430;-69
2023/10/30 00:05:11;;;;;;;;;4.25;2.00;;;;;14.84;73.08;99619.00;5060023;28;45373;-69
2023/10/30 00:07:36;;;;;;;;;1.00;1.00;;;;;14.42;72.97;99545.09;5059619;28;45468;-69
2023/10/30 00:10:02;;;;;;;;;0.75;0.75;;;;;14.42;73.07;99550.44;5059849;28;45622;-69
2023/10/30 00:12:28;;;;;;;;;1.25;1.25;;;;;14.77;73.19;99607.41;5059255;28;46090;-69
2023/10/30 00:14:53;;;;;;;;;2.75;2.25;;;;;14.76;73.02;99604.94;5059565;28;45514;-69
2023/10/30 00:17:18;;;;;;;;;3.25;0.00;;;;;14.77;73.07;99606.59;5060030;28;45611;-69
2023/10/30 00:19:44;;;;;;;;;3.50;1.00;;;;;14.79;73.02;99616.06;5041430;28;45420;-69
2023/10/30 00:22:11;;;;;;;;;2.00;2.00;;;;;14.70;73.20;99605.75;5059027;28;46645;-69
2023/10/30 00:24:39;;;;;;;;;1.75;1.00;;;;;14.67;73.42;99609.66;5058859;28;45443;-69
2023/10/30 00:27:05;;;;;;;;;3.00;1.00;;;;;14.71;73.14;99608.22;5059048;28;45439;-68
2023/10/30 00:29:30;;;;;;;;;3.00;1.00;;;;;14.62;73.41;99598.72;5059386;28;45642;-69
2023/10/30 00:31:55;;;;;;;;;3.25;3.25;;;;;14.65;73.33;99603.66;5057616;28;46174;-69
2023/10/30 00:34:21;;;;;;;;;2.00;0.00;;;;;14.62;73.29;99604.06;5058455;28;45419;-69
2023/10/30 00:36:46;;;;;;;;;2.75;1.25;;;;;14.64;73.34;99606.53;5059282;28;45454;-71
2023/10/30 00:39:12;;;;;;;;;2.00;0.25;;;;;14.63;73.44;99604.91;5057886;28;45382;-69
2023/10/30 00:41:37;;;;;;;;;2.25;0.75;;;;;14.51;73.40;99585.91;5058537;28;46979;-69
2023/10/30 00:44:02;;;;;;;;;0.00;0.00;;;;;14.63;73.46;99611.06;5058426;28;49476;-68
2023/10/30 00:46:28;;;;;;;;;2.25;0.25;;;;;14.59;73.31;99609.78;5058570;28;45435;-68
2023/10/30 00:48:53;;;;;;;;;1.25;1.00;;;;;14.58;73.33;99598.25;5041500;28;45487;-69
2023/10/30 00:51:18;;;;;;;;;1.00;0.00;;;;;14.60;73.11;99608.75;5059398;28;46440;-68
2023/10/30 00:53:44;;;;;;;;;3.25;1.25;;;;;14.23;73.55;99553.84;5059083;28;52996;-71
2023/10/30 00:56:09;;;;;;;;;0.00;0.00;;;;;14.53;73.80;99602.56;5059190;28;48741;-69
2023/10/30 00:58:35;;;;;;;;;0.25;0.25;;;;;14.53;73.27;99599.88;5059417;28;45332;-69
2023/10/30 01:01:01;;;;;;;;;2.00;0.50;;;;;14.45;73.26;99587.50;5059094;28;47319;-69
2023/10/30 01:03:26;;;;;;;;;2.75;2.00;;;;;14.50;73.39;99585.06;5058915;28;45354;-69
2023/10/30 01:05:58;;;;;;;;;1.00;1.00;;;;;14.51;73.18;99596.59;5059346;28;45271;-69
2023/10/30 01:08:25;;;;;;;;;4.00;1.00;;;;;14.50;73.10;99595.75;5059468;28;45439;-70
2023/10/30 01:10:52;;;;;;;;;1.25;0.50;;;;;14.57;72.72;99601.97;5058974;28;47769;-69
2023/10/30 01:13:17;;;;;;;;;1.50;1.00;;;;;14.58;72.96;99600.13;5040765;28;45324;-69
2023/10/30 01:15:43;;;;;;;;;3.00;1.00;;;;;14.51;73.48;99594.75;5059218;28;45233;-68
2023/10/30 01:18:08;;;;;;;;;0.25;0.25;;;;;14.53;73.25;99605.25;5059195;28;45614;-69
2023/10/30 01:20:38;;;;;;;;;0.50;0.25;;;;;14.51;73.22;99591.25;5059103;28;46600;-68
2023/10/30 01:23:04;;;;;;;;;4.75;1.00;;;;;14.42;73.45;99587.06;5059003;28;45491;-68
2023/10/30 01:25:29;;;;;;;;;2.00;1.00;;;;;14.42;73.51;99581.72;5059016;28;45601;-67
2023/10/30 01:27:55;;;;;;;;;1.25;1.00;;;;;14.07;73.85;99535.44;5059113;28;45443;-69
2023/10/30 01:30:20;;;;;;;;;2.00;1.00;;;;;14.46;73.47;99577.66;5040484;28;47606;-68
2023/10/30 01:32:46;;;;;;;;;1.00;1.00;;;;;14.38;73.34;99565.22;5058716;28;45212;-68
2023/10/30 01:35:11;;;;;;;;;2.75;1.50;;;;;14.44;72.97;99579.69;5058953;28;45241;-68
2023/10/30 01:37:36;;;;;;;;;3.00;0.25;;;;;14.44;73.38;99579.69;5058949;28;45330;-68
2023/10/30 01:40:02;;;;;;;;;2.25;1.00;;;;;14.30;73.12;99560.84;5058202;28;46002;-68
2023/10/30 01:42:28;;;;;;;;;1.75;1.00;;;;;14.32;73.48;99572.19;5058198;28;45281;-68
2023/10/30 01:44:55;;;;;;;;;2.25;0.50;;;;;14.27;73.66;99577.28;5058613;28;45275;-70
2023/10/30 01:47:21;;;;;;;;;3.50;0.75;;;;;14.24;73.58;99569.69;5058754;28;45343;-68
2023/10/30 01:49:46;;;;;;;;;0.00;0.00;;;;;14.27;73.58;99571.94;5058408;28;46299;-70
2023/10/30 01:52:13;;;;;;;;;0.00;0.00;;;;;14.23;73.33;99568.03;5058338;28;45459;-69
2023/10/30 01:54:39;;;;;;;;;3.00;1.00;;;;;14.23;73.50;99573.38;5058566;28;45338;-69
2023/10/30 01:57:05;;;;;;;;;2.00;2.00;;;;;14.21;73.45;99570.03;5058152;28;45571;-69
2023/10/30 01:59:31;;;;;;;;;3.00;2.00;;;;;13.95;73.64;99519.09;5058178;28;46831;-69
2023/10/30 02:01:56;;;;;;;;;1.75;1.00;;;;;14.17;73.67;99560.78;5058343;28;45286;-69
2023/10/30 02:04:23;;;;;;;;;0.75;0.75;;;;;14.17;73.70;99563.44;5058432;28;45269;-68
2023/10/30 02:06:48;;;;;;;;;2.00;1.00;;;;;14.15;73.14;99552.13;5058592;28;45210;-69
2023/10/30 02:09:14;;;;;;;;;0.75;0.75;;;;;14.10;73.76;99543.88;5039407;28;62221;-69
2023/10/30 02:11:39;;;;;;;;;1.75;0.75;;;;;14.10;73.57;99541.19;5058013;28;45304;-69
2023/10/30 02:14:04;;;;;;;;;1.50;1.25;;;;;14.17;73.48;99552.75;5057970;28;45604;-69
2023/10/30 02:16:30;;;;;;;;;1.00;1.00;;;;;14.13;73.59;99542.66;5057830;28;45576;-69
2023/10/30 02:18:55;;;;;;;;;1.00;1.00;;;;;14.14;73.48;99550.47;5057924;28;46563;-69
2023/10/30 02:21:21;;;;;;;;;1.25;1.25;;;;;14.11;73.61;99548.19;5057881;28;45463;-69
2023/10/30 02:23:46;;;;;;;;;2.50;2.00;;;;;14.12;73.51;99552.53;5058026;28;45776;-69
2023/10/30 02:26:11;;;;;;;;;0.25;0.25;;;;;14.08;73.43;99559.28;5058231;28;45416;-69
2023/10/30 02:28:37;;;;;;;;;1.00;0.50;;;;;14.08;73.66;99553.94;5057634;28;46386;-69
2023/10/30 02:31:02;;;;;;;;;0.00;0.00;;;;;13.78;73.57;99499.03;5039400;28;54182;-69
2023/10/30 02:33:27;;;;;;;;;1.75;1.00;;;;;14.01;73.88;99545.03;5057994;28;45507;-69
2023/10/30 02:35:53;;;;;;;;;1.50;1.50;;;;;13.96;73.73;99550.97;5058129;28;45293;-69
2023/10/30 02:38:18;;;;;;;;;0.00;0.00;;;;;13.93;73.88;99526.50;5055126;28;46562;-69
2023/10/30 02:40:43;;;;;;;;;2.00;0.00;;;;;14.02;73.46;99530.69;5057779;28;45301;-68
2023/10/30 02:43:09;;;;;;;;;0.50;0.50;;;;;14.09;73.49;99544.91;5057404;28;46879;-68
2023/10/30 02:45:34;;;;;;;;;1.50;1.00;;;;;14.02;73.81;99530.69;5057988;28;45448;-69
2023/10/30 02:47:59;;;;;;;;;1.50;0.25;;;;;14.06;73.46;99523.91;5057470;28;47428;-70
2023/10/30 02:50:25;;;;;;;;;0.25;0.25;;;;;14.07;73.74;99530.91;5057690;28;45471;-68
2023/10/30 02:52:50;;;;;;;;;4.00;2.00;;;;;13.80;73.30;99487.13;5057716;28;45332;-69
2023/10/30 02:55:15;;;;;;;;;0.50;0.50;;;;;14.02;73.26;99524.50;5057701;28;45281;-68
2023/10/30 02:57:41;;;;;;;;;2.75;1.00;;;;;14.08;73.15;99526.38;5057017;28;45509;-70
2023/10/30 03:00:07;;;;;;;;;2.00;1.00;;;;;13.65;73.29;99455.22;5057413;28;45346;-69
2023/10/30 03:02:32;;;;;;;;;1.50;1.00;;;;;14.00;73.15;99514.00;5057592;28;45375;-70
2023/10/30 03:04:57;;;;;;;;;2.25;2.25;;;;;14.01;73.17;99520.97;5057575;28;45225;-70
2023/10/30 03:07:22;;;;;;;;;2.00;1.00;;;;;14.00;73.53;99522.00;5057559;28;46464;-69
2023/10/30 03:09:49;;;;;;;;;2.00;2.00;;;;;13.94;73.48;99506.75;5057371;28;45476;-69
2023/10/30 03:12:14;;;;;;;;;1.00;1.00;;;;;13.97;73.37;99511.72;5057028;28;45322;-69
2023/10/30 03:14:39;;;;;;;;;4.75;1.25;;;;;13.91;73.58;99513.31;5057553;28;45495;-69
2023/10/30 03:17:05;;;;;;;;;1.25;1.25;;;;;13.89;73.16;99501.19;5057233;28;47225;-69
2023/10/30 03:19:32;;;;;;;;;0.50;0.50;;;;;13.87;73.64;99495.22;5057077;28;45328;-69
2023/10/30 03:21:57;;;;;;;;;1.50;1.50;;;;;13.94;73.25;99504.09;5057216;28;45406;-70
2023/10/30 03:24:22;;;;;;;;;1.00;1.00;;;;;13.86;73.34;99475.69;5056926;28;47714;-69
2023/10/30 03:26:49;;;;;;;;;3.75;2.00;;;;;13.92;73.33;99490.94;5055388;28;46388;-68
2023/10/30 03:29:14;;;;;;;;;0.50;0.50;;;;;13.87;73.40;99482.69;5057035;28;45532;-69
2023/10/30 03:31:40;;;;;;;;;1.50;1.00;;;;;13.79;73.56;99476.66;5057212;28;45364;-69
2023/10/30 03:34:05;;;;;;;;;2.00;1.00;;;;;13.74;73.73;99471.06;5057422;28;45510;-69
2023/10/30 03:36:31;;;;;;;;;2.75;1.25;;;;;13.51;73.76;99433.94;5056692;28;46789;-69
2023/10/30 03:38:56;;;;;;;;;1.50;1.00;;;;;13.73;74.14;99469.44;5056793;28;45237;-69
2023/10/30 03:41:21;;;;;;;;;2.00;2.00;;;;;13.77;74.33;99471.50;5057251;28;45412;-69
2023/10/30 03:43:47;;;;;;;;;2.00;2.00;;;;;13.81;74.37;99485.28;5038465;28;50935;-69
2023/10/30 03:46:12;;;;;;;;;1.00;1.00;;;;;13.79;74.32;99490.00;5056572;28;53797;-70
2023/10/30 03:48:38;;;;;;;;;4.00;2.00;;;;;13.78;74.51;99483.84;5056805;28;45407;-69
2023/10/30 03:51:04;;;;;;;;;1.25;1.25;;;;;13.80;74.59;99484.47;5056991;28;45301;-69
2023/10/30 03:53:29;;;;;;;;;2.00;2.00;;;;;13.79;74.47;99487.34;5057067;28;45206;-69
2023/10/30 03:55:55;;;;;;;;;1.75;1.75;;;;;13.79;74.53;99485.50;5056716;28;46203;-70
2023/10/30 03:58:20;;;;;;;;;3.00;2.00;;;;;13.69;74.74;99464.47;5056592;28;45425;-69
2023/10/30 04:00:46;;;;;;;;;2.00;0.50;;;;;13.74;74.68;99465.72;5057049;28;45952;-69
2023/10/30 04:03:11;;;;;;;;;2.33;1.00;;;;;13.75;74.47;99468.22;5056864;28;45485;-70
2023/10/30 04:05:38;;;;;;;;;1.00;1.00;;;;;13.30;74.24;99394.78;5056604;28;45664;-69
2023/10/30 04:08:04;;;;;;;;;2.00;2.00;;;;;13.62;74.57;99457.47;5056638;28;45462;-69
2023/10/30 04:10:29;;;;;;;;;1.75;1.75;;;;;13.72;74.51;99467.78;5056673;28;45268;-69
2023/10/30 04:12:54;;;;;;;;;2.25;0.75;;;;;13.72;74.52;99473.94;5056535;28;45540;-70
2023/10/30 04:15:20;;;;;;;;;1.75;0.75;;;;;13.73;74.29;99464.09;5056420;28;46053;-69
2023/10/30 04:17:45;;;;;;;;;1.00;1.00;;;;;13.69;74.21;99452.97;5056779;28;45435;-69
2023/10/30 04:20:11;;;;;;;;;2.75;1.75;;;;;13.67;74.37;99450.50;5056524;28;45222;-69
2023/10/30 04:22:37;;;;;;;;;1.00;1.00;;;;;13.72;74.21;99460.59;5056703;28;45335;-69
2023/10/30 04:25:03;;;;;;;;;1.00;1.00;;;;;13.72;74.23;99462.44;5038203;28;46319;-69
2023/10/30 04:27:29;;;;;;;;;2.00;1.00;;;;;13.72;74.75;99467.78;5056059;28;45214;-69
2023/10/30 04:29:54;;;;;;;;;1.25;0.75;;;;;13.69;74.54;99477.00;5056479;28;45233;-69
2023/10/30 04:32:19;;;;;;;;;1.00;1.00;;;;;13.69;74.34;99490.38;5056388;28;45338;-69
2023/10/30 04:34:44;;;;;;;;;2.00;2.00;;;;;13.66;74.38;99491.59;5056208;28;45509;-69
2023/10/30 04:37:10;;;;;;;;;1.00;0.50;;;;;13.67;74.51;99482.56;5056193;28;45281;-69
2023/10/30 04:39:35;;;;;;;;;2.50;1.75;;;;;13.69;74.51;99477.00;5058889;28;45476;-70
2023/10/30 04:42:01;;;;;;;;;3.75;2.50;;;;;13.76;73.96;99483.22;5059509;28;45597;-69
2023/10/30 04:44:26;;;;;;;;;3.00;1.75;;;;;13.79;74.46;99482.00;5059515;28;45589;-70
2023/10/30 04:46:52;;;;;;;;;3.00;1.75;;;;;13.80;74.09;99481.78;5059490;28;45413;-69
2023/10/30 04:49:17;;;;;;;;;3.25;1.00;;;;;13.46;74.25;99428.38;5059803;28;45482;-70
2023/10/30 04:51:43;;;;;;;;;1.25;1.25;;;;;13.82;74.61;99485.13;5059987;28;45296;-69
2023/10/30 04:54:09;;;;;;;;;2.00;2.00;;;;;13.73;74.86;99453.41;5059175;28;45481;-69
2023/10/30 04:56:34;;;;;;;;;1.00;1.00;;;;;13.37;74.48;99395.66;5059202;28;45471;-69
2023/10/30 04:58:59;;;;;;;;;1.00;1.00;;;;;13.85;74.32;99463.34;5059406;28;45277;-69
2023/10/30 05:01:24;;;;;;;;;4.50;1.50;;;;;13.87;74.64;99466.66;5059493;28;45388;-69
2023/10/30 05:03:50;;;;;;;;;2.25;1.25;;;;;13.86;74.59;99456.16;5059158;28;46828;-69
2023/10/30 05:06:16;;;;;;;;;4.75;3.75;;;;;13.88;74.76;99459.47;5058945;28;45292;-70
2023/10/30 05:08:41;;;;;;;;;4.00;3.00;;;;;13.84;75.27;99447.53;5059330;28;45431;-71
2023/10/30 05:11:06;;;;;;;;;2.00;1.00;;;;;13.88;74.72;99438.09;5059579;28;45221;-70
2023/10/30 05:13:33;;;;;;;;;1.00;1.00;;;;;13.92;75.04;99431.31;5059088;28;45671;-69
2023/10/30 05:15:58;;;;;;;;;3.00;2.00;;;;;14.03;74.78;99440.66;5058975;28;45385;-68
2023/10/30 05:18:24;;;;;;;;;2.00;1.00;;;;;14.01;74.41;99440.81;5058880;28;45214;-69
2023/10/30 05:20:50;;;;;;;;;1.50;1.50;;;;;14.00;74.67;99433.81;5059310;28;45265;-68
2023/10/30 05:23:16;;;;;;;;;2.25;1.00;;;;;13.97;74.65;99426.19;5040865;28;47116;-70
2023/10/30 05:25:41;;;;;;;;;1.00;1.00;;;;;13.78;74.53;99394.88;5058810;28;45283;-69
2023/10/30 05:28:07;;;;;;;;;3.00;3.00;;;;;13.97;74.85;99418.19;5058401;28;45420;-69
2023/10/30 05:30:34;;;;;;;;;2.75;2.75;;;;;13.96;74.91;99425.38;5059172;28;45555;-69
2023/10/30 05:33:00;;;;;;;;;1.00;1.00;;;;;13.91;74.72;99413.66;5058736;28;47381;-70
2023/10/30 05:35:25;;;;;;;;;1.00;1.00;;;;;13.93;74.35;99411.59;5058253;28;45317;-69
2023/10/30 05:37:50;;;;;;;;;1.75;1.75;;;;;13.21;74.40;99299.84;5058756;28;45348;-70
2023/10/30 05:40:16;;;;;;;;;1.25;0.50;;;;;13.91;74.42;99419.00;5058832;28;45484;-69
2023/10/30 05:42:41;;;;;;;;;1.25;1.25;;;;;13.88;74.75;99411.38;5058120;28;46543;-69
2023/10/30 05:45:07;;;;;;;;;1.50;1.50;;;;;13.59;74.52;99365.19;5058450;28;45455;-68
2023/10/30 05:47:32;;;;;;;;;1.00;1.00;;;;;13.83;75.45;99422.66;5058737;28;45226;-68
2023/10/30 05:49:58;;;;;;;;;1.50;1.00;;;;;13.37;75.09;99353.75;5057280;28;45550;-68
2023/10/30 05:52:23;;;;;;;;;2.00;2.00;;;;;13.78;75.45;99440.28;5058215;28;47438;-69
2023/10/30 05:54:49;;;;;;;;;1.00;1.00;;;;;13.78;75.57;99433.09;5058358;28;45305;-68
2023/10/30 05:57:15;;;;;;;;;4.50;3.00;;;;;13.78;76.25;99410.88;5058116;28;45520;-68
2023/10/30 05:59:41;;;;;;;;;3.25;3.25;;;;;13.91;76.07;99413.66;5040648;28;45475;-69
2023/10/30 06:02:06;;;;;;;;;1.75;1.00;;;;;13.91;75.75;99402.97;5057990;28;46697;-69
2023/10/30 06:04:31;;;;;;;;;2.75;1.50;;;;;13.92;75.25;99405.44;5040048;28;45519;-68
2023/10/30 06:06:57;;;;;;;;;1.00;1.00;;;;;13.89;75.44;99394.31;5058001;28;45360;-69
2023/10/30 06:09:22;;;;;;;;;2.00;2.00;;;;;14.00;75.44;99409.78;5057886;28;50401;-69
2023/10/30 06:11:48;;;;;;;;;0.00;0.00;;;;;14.02;75.37;99418.44;5057671;28;45561;-67
2023/10/30 06:14:15;;;;;;;;;1.75;1.75;;;;;14.04;75.51;99424.41;5057809;28;45371;-68
2023/10/30 06:16:41;;;;;;;;;0.75;0.75;;;;;14.08;75.73;99427.50;5058115;28;45428;-69
2023/10/30 06:19:06;;;;;;;;;1.00;1.00;;;;;14.10;75.91;99423.59;5058106;28;45331;-68
2023/10/30 06:21:31;;;;;;;;;2.00;2.00;;;;;14.19;75.96;99424.25;5057869;28;47475;-68
2023/10/30 06:23:57;;;;;;;;;1.00;1.00;;;;;14.19;75.56;99411.72;5057887;28;45293;-68
2023/10/30 06:26:22;;;;;;;;;3.25;2.00;;;;;14.18;75.08;99396.69;5057727;28;45183;-68
2023/10/30 06:28:47;;;;;;;;;1.75;1.75;;;;;14.23;74.99;99396.94;5057742;28;45186;-68
2023/10/30 06:31:17;;;;;;;;;1.75;1.25;;;;;14.18;75.85;99388.66;5057450;28;46778;-69
2023/10/30 06:33:44;;;;;;;;;3.25;2.25;;;;;14.06;75.92;99395.63;5057621;28;45345;-69
2023/10/30 06:36:09;;;;;;;;;4.25;3.00;;;;;14.17;76.08;99429.78;5057825;28;45326;-69
2023/10/30 06:38:35;;;;;;;;;3.00;2.00;;;;;14.21;76.33;99440.91;5057641;28;45572;-69
2023/10/30 06:41:01;;;;;;;;;3.00;3.00;;;;;14.25;76.41;99452.88;5057098;28;47401;-69
2023/10/30 06:43:26;;;;;;;;;3.00;2.00;;;;;14.26;76.49;99444.66;5057160;28;45416;-69
2023/10/30 06:46:02;;;;;;;;;1.00;1.00;;;;;14.31;76.70;99449.41;5039048;28;49943;-69
2023/10/30 06:48:27;;;;;;;;;2.00;1.00;;;;;14.36;76.45;99441.59;5057588;28;45562;-70
2023/10/30 06:50:53;;;;;;;;;2.50;1.25;;;;;14.37;76.74;99445.09;5056961;28;45360;-68
2023/10/30 06:53:19;;;;;;;;;2.00;2.00;;;;;14.39;76.40;99445.72;5057113;28;45447;-69
2023/10/30 06:55:44;;;;;;;;;2.75;1.00;;;;;14.01;76.99;99366.00;5057332;28;45265;-69
2023/10/30 06:58:10;;;;;;;;;4.00;2.00;;;;;14.44;77.08;99425.41;5056899;28;45447;-69
2023/10/30 07:00:35;;;;;;;;;2.00;2.00;;;;;14.37;76.67;99413.00;5056509;28;46477;-68
2023/10/30 07:03:01;;;;;;;;;6.67;3.33;;;;;14.49;77.40;99420.28;5056558;28;45346;-69
2023/10/30 07:05:26;;;;;;;;;4.25;1.75;;;;;14.47;76.85;99413.50;5057196;28;45664;-69
2023/10/30 07:07:52;;;;;;;;;2.00;2.00;;;;;14.41;76.83;99388.34;5057157;28;45363;-68
2023/10/30 07:10:17;;;;;;;;;2.00;1.50;;;;;14.44;76.72;99393.34;5056155;28;63765;-68
2023/10/30 07:12:43;;;;;;;;;2.00;2.00;;;;;14.38;76.75;99393.25;5056414;28;57336;-69
2023/10/30 07:15:08;;;;;;;;;1.50;1.50;;;;;14.38;77.00;99387.91;5056958;28;45369;-69
2023/10/30 07:17:34;;;;;;;;;3.00;2.00;;;;;14.38;76.87;99398.59;5057185;28;45520;-69
2023/10/30 07:19:59;;;;;;;;;2.50;2.50;;;;;14.28;77.30;99367.75;5056548;28;47400;-69
2023/10/30 07:22:25;;;;;;;;;2.50;1.50;;;;;14.37;77.42;99396.97;5056685;28;45534;-69
2023/10/30 07:24:50;;;;;;;;;2.75;2.75;;;;;14.12;77.47;99356.59;5056772;28;45343;-68
2023/10/30 07:27:18;;;;;;;;;2.00;2.00;;;;;14.02;77.46;99338.28;5056638;28;45243;-68
2023/10/30 07:29:43;;;;;;;;;2.00;2.00;;;;;14.33;77.37;99388.53;5056538;28;46681;-68
2023/10/30 07:32:08;;;;;;;;;3.00;1.25;;;;;14.30;76.91;99384.41;5056486;28;45175;-68
2023/10/30 07:34:34;;;;;;;;;2.75;2.00;;;;;14.24;77.75;99377.19;5056775;28;45383;-68
2023/10/30 07:36:59;;;;;;;;;3.00;3.00;;;;;14.17;77.78;99365.66;5056392;28;46041;-69
2023/10/30 07:39:25;;;;;;;;;3.00;2.00;;;;;14.32;78.34;99374.34;5056372;28;45999;-69
2023/10/30 07:41:50;;;;;;;;;2.33;1.00;;;;;13.97;77.91;99322.00;5056095;28;49424;-69
2023/10/30 07:44:15;;;;;;;;;3.00;3.00;;;;;14.34;78.08;99378.66;5054681;28;46156;-69
2023/10/30 07:46:40;;;;;;;;;4.25;2.25;;;;;14.38;78.25;99377.22;5055351;28;45809;-69
2023/10/30 07:49:07;;;;;;;;;2.00;2.00;;;;;14.44;78.20;99376.47;5054602;28;56357;-73
2023/10/30 07:51:32;;;;;;;;;2.00;0.50;;;;;14.32;77.86;99358.28;5053665;28;45422;-69
2023/10/30 07:53:58;;;;;;;;;4.00;3.67;;;;;14.51;77.85;99382.63;5038370;28;45500;-69
2023/10/30 07:56:24;;;;;;;;;2.00;2.00;;;;;14.50;77.73;99399.72;5056367;28;45492;-70
2023/10/30 07:58:50;;;;;;;;;2.50;2.50;;;;;14.49;77.97;99392.72;5055746;28;47171;-69
2023/10/30 08:01:18;;;;;;;;;2.00;2.00;;;;;14.50;77.87;99391.69;5054659;28;46080;-68
2023/10/30 08:03:44;;;;;;;;;2.00;1.00;;;;;14.51;77.79;99379.97;5055718;28;45348;-70
2023/10/30 08:06:09;;;;;;;;;1.00;0.00;;;;;14.55;77.98;99375.84;5056194;28;45564;-69
2023/10/30 08:08:35;;;;;;;;;2.25;2.25;;;;;14.58;77.92;99367.41;5055553;28;57860;-68
2023/10/30 08:11:00;;;;;;;;;2.67;2.67;;;;;14.62;78.12;99368.69;5055189;28;45230;-68
2023/10/30 08:13:26;;;;;;;;;3.00;3.00;;;;;14.59;78.54;99363.72;5038736;28;45261;-69
2023/10/30 08:15:52;;;;;;;;;4.00;4.00;;;;;14.59;78.58;99347.66;5058208;28;45350;-68
2023/10/30 08:18:19;;;;;;;;;4.25;2.00;;;;;14.51;78.88;99353.22;5055741;28;45498;-70
2023/10/30 08:20:44;;;;;;;;;3.75;3.75;;;;;14.49;78.32;99365.97;5058561;28;45535;-68
2023/10/30 08:23:09;;;;;;;;;3.50;3.50;;;;;14.23;78.41;99335.47;5059426;28;45484;-68
2023/10/30 08:25:35;;;;;;;;;2.25;2.25;;;;;14.46;78.56;99369.06;5058662;28;45481;-69
2023/10/30 08:28:00;;;;;;;;;3.00;3.00;;;;;14.57;78.64;99388.00;5058747;28;46392;-69
2023/10/30 08:30:26;;;;;;;;;5.25;3.25;;;;;14.61;78.79;99383.06;5041101;28;46053;-69
2023/10/30 08:32:51;;;;;;;;;3.00;2.00;;;;;14.63;78.83;99375.69;5059485;28;45515;-69
2023/10/30 08:35:17;;;;;;;;;5.00;5.00;;;;;14.40;78.50;99311.00;5055999;28;45345;-68
2023/10/30 08:37:43;;;;;;;;;7.25;3.25;;;;;14.76;78.74;99370.31;5058735;28;46528;-68
2023/10/30 08:40:09;;;;;;;;;4.50;4.25;;;;;14.81;78.97;99370.53;5057657;28;45357;-71
2023/10/30 08:42:34;;;;;;;;;6.00;6.00;;;;;14.86;78.57;99361.91;5058099;28;45229;-69
2023/10/30 08:45:00;;;;;;;;;4.50;4.00;;;;;14.89;78.64;99365.00;5059228;28;45218;-69
2023/10/30 08:47:25;;;;;;;;;1.00;1.00;;;;;14.93;78.10;99359.22;5058578;28;47199;-69
2023/10/30 08:49:50;;;;;;;;;2.00;1.00;;;;;14.99;77.82;99363.75;5040490;28;45397;-68
2023/10/30 08:52:16;;;;;;;;;3.00;3.00;;;;;14.82;77.36;99326.72;5059048;28;45446;-68
2023/10/30 08:54:42;;;;;;;;;2.75;2.50;;;;;14.85;77.12;99328.16;5059020;28;45449;-68
2023/10/30 08:57:08;;;;;;;;;3.00;3.00;;;;;15.00;77.35;99344.81;5057596;28;47786;-68
2023/10/30 08:59:38;;;;;;;;;3.00;2.00;;;;;15.01;77.10;99346.44;5040537;28;45529;-69
2023/10/30 09:02:06;;;;;;;;;5.50;3.00;;;;;15.00;77.31;99338.63;5059083;28;45334;-68
2023/10/30 09:04:33;;;;;;;;;4.33;4.33;;;;;15.02;77.67;99347.31;5058914;28;45332;-68
2023/10/30 09:06:58;;;;;;;;;2.00;2.00;;;;;15.01;77.37;99341.09;5058466;28;46571;-69
2023/10/30 09:09:24;;;;;;;;;4.00;3.00;;;;;15.02;76.85;99339.28;5040387;28;45421;-68
2023/10/30 09:11:49;;;;;;;;;2.00;1.00;;;;;15.04;77.10;99335.34;5058279;28;45479;-69
2023/10/30 09:14:14;;;;;;;;;1.50;1.50;;;;;15.05;77.16;99320.94;5058457;28;45518;-69
2023/10/30 09:16:40;;;;;;;;;1.00;1.00;;;;;14.75;76.64;99269.69;5056883;28;46707;-69
2023/10/30 09:19:06;;;;;;;;;3.00;0.25;;;;;14.97;76.51;99325.66;5056156;28;45329;-69
2023/10/30 09:21:31;;;;;;;;;3.00;3.00;;;;;14.98;76.24;99338.00;5058400;28;45427;-68
2023/10/30 09:23:56;;;;;;;;;1.50;0.50;;;;;14.98;76.57;99335.34;5040957;28;45309;-68
2023/10/30 09:26:21;;;;;;;;;1.00;1.00;;;;;14.98;76.19;99343.38;5058273;28;45673;-68
2023/10/30 09:28:47;;;;;;;;;3.00;2.75;;;;;14.97;76.22;99342.53;5057405;28;59429;-68
2023/10/30 09:31:12;;;;;;;;;2.00;2.00;;;;;15.00;76.58;99357.34;5058419;28;45430;-70
2023/10/30 09:33:37;;;;;;;;;0.25;0.25;;;;;14.93;76.29;99346.66;5057524;28;45493;-69
2023/10/30 09:36:05;;;;;;;;;0.25;0.25;;;;;14.91;76.38;99343.38;5058056;28;46737;-69
2023/10/30 09:38:31;;;;;;;;;0.75;0.75;;;;;14.87;76.07;99352.84;5039147;28;46463;-69
2023/10/30 09:41:03;;;;;;;;;0.00;0.00;;;;;14.82;76.75;99345.44;5058048;28;45456;-69
2023/10/30 09:43:29;;;;;;;;;2.25;2.25;;;;;14.72;77.02;99337.00;5057928;28;45506;-68
2023/10/30 09:46:00;;;;;;;;;1.00;1.00;;;;;14.09;77.33;99245.56;5057404;28;46565;-69
2023/10/30 09:48:28;;;;;;;;;2.25;2.00;;;;;14.38;77.91;99302.34;5056710;28;45376;-69
2023/10/30 09:50:54;;;;;;;;;1.00;1.00;;;;;14.64;78.02;99345.22;5057831;28;45275;-69
2023/10/30 09:53:20;;;;;;;;;1.50;1.50;;;;;14.58;78.37;99340.66;5058165;28;45531;-69
2023/10/30 09:55:48;;;;;;;;;2.25;2.25;;;;;14.59;79.11;99351.16;5056144;28;46613;-68
2023/10/30 09:58:15;;;;;;;;;2.25;2.25;;;;;14.63;78.91;99353.47;5057318;28;45404;-68
2023/10/30 10:00:44;;;;;;;;;2.50;2.50;;;;;14.62;78.91;99349.97;5056930;28;45510;-71
2023/10/30 10:03:10;;;;;;;;;5.25;2.00;;;;;14.48;78.86;99302.81;5056579;28;45210;-70
2023/10/30 10:05:35;;;;;;;;;2.00;2.00;;;;;14.65;78.91;99332.69;5055782;28;47228;-68
2023/10/30 10:08:01;;;;;;;;;2.25;1.25;;;;;14.61;79.07;99318.88;5057544;28;45227;-69
2023/10/30 10:10:26;;;;;;;;;3.00;3.00;;;;;14.54;79.10;99302.00;5057251;28;45503;-68
2023/10/30 10:12:51;;;;;;;;;2.75;2.75;;;;;14.38;79.48;99271.09;5055643;28;45646;-69
2023/10/30 10:15:17;;;;;;;;;3.33;2.67;;;;;14.66;79.28;99295.03;5056626;28;46214;-67
2023/10/30 10:17:46;;;;;;;;;4.33;4.33;;;;;14.65;79.64;99290.69;5055599;28;45579;-76
2023/10/30 10:20:12;;;;;;;;;4.67;4.67;;;;;14.70;79.51;99296.25;5055806;28;45304;-70
2023/10/30 10:22:39;;;;;;;;;3.00;3.00;;;;;14.67;79.67;99291.31;5043230;28;45534;-68
2023/10/30 10:25:07;;;;;;;;;3.00;3.00;;;;;14.64;80.14;99282.88;5047599;28;46229;-68
2023/10/30 10:27:33;;;;;;;;;5.00;5.00;;;;;14.62;80.34;99272.41;5056871;28;45496;-68
2023/10/30 10:29:59;;;;;;;;;4.00;4.00;;;;;14.67;80.35;99269.91;5057180;28;45456;-70
2023/10/30 10:32:28;;;;;;;;;5.00;3.00;;;;;14.72;79.88;99274.63;5056111;28;45615;-74
2023/10/30 10:34:58;;;;;;;;;4.67;4.67;;;;;14.68;79.85;99271.56;5056586;28;45882;-70
2023/10/30 10:37:23;;;;;;;;;4.67;3.67;;;;;14.73;80.07;99269.09;5055718;28;45517;-70
2023/10/30 10:39:53;;;;;;;;;4.00;4.00;;;;;14.77;80.37;99253.44;5057189;28;45502;-70
2023/10/30 10:42:20;;;;;;;;;3.25;3.25;;;;;14.80;80.06;99259.19;5057440;28;45428;-70
2023/10/30 10:44:48;;;;;;;;;5.00;2.50;;;;;14.87;79.80;99249.31;5057184;28;46589;-70
2023/10/30 10:47:14;;;;;;;;;3.00;3.00;;;;;14.96;79.70;99246.41;5057085;28;45472;-69
2023/10/30 10:49:40;;;;;;;;;4.00;4.00;;;;;15.00;79.84;99237.75;5057151;28;45344;-72
2023/10/30 10:52:09;;;;;;;;;6.00;6.00;;;;;15.00;79.36;99221.69;5057403;28;45550;-70
2023/10/30 10:54:44;;;;;;;;;4.00;4.00;;;;;15.08;79.56;99223.34;5056841;28;46555;-71
2023/10/30 10:57:15;;;;;;;;;3.00;3.00;;;;;15.15;78.84;99230.31;5056423;28;45253;-72
2023/10/30 10:59:44;;;;;;;;;6.00;5.00;;;;;15.14;79.21;99220.63;5057039;28;45499;-70
2023/10/30 11:02:12;;;;;;;;;8.33;6.00;;;;;15.08;79.69;99207.28;5057056;28;45533;-70
2023/10/30 11:04:38;;;;;;;;;4.67;4.67;;;;;15.14;79.45;99212.59;5038283;28;47789;-70
2023/10/30 11:07:09;;;;;;;;;7.67;6.00;;;;;14.99;79.63;99185.25;5056545;28;45469;-70
2023/10/30 11:09:47;;;;;;;;;5.00;5.00;;;;;15.20;79.54;99213.59;5057037;28;45307;-69
2023/10/30 11:12:26;;;;;;;;;8.00;6.33;;;;;15.24;79.99;99214.03;5056825;28;45459;-72
2023/10/30 11:15:09;;;;;;;;;8.33;7.67;;;;;15.30;79.20;99222.03;5056477;28;45721;-70
2023/10/30 11:17:36;;;;;;;;;7.67;7.67;;;;;15.38;79.28;99229.81;5056701;28;45418;-70
2023/10/30 11:20:07;;;;;;;;;12.33;9.33;;;;;15.27;79.39;99194.84;5056708;28;45432;-71
2023/10/30 11:22:38;;;;;;;;;9.33;6.33;;;;;15.48;78.95;99214.13;5038139;28;45418;-71
2023/10/30 11:25:04;;;;;;;;;7.67;7.67;;;;;15.48;78.66;99191.88;5035845;28;46329;-70
2023/10/30 11:27:34;;;;;;;;;12.00;10.67;;;;;15.64;79.09;99214.72;5035371;28;45379;-69